Time;durP1;ratioP1;P1;durP2;ratioP2;P2;SDS_P1;SDS_P2;PMS_P1;PMS_P2;Temp;Humidity;BMP_temperature;BMP_pressure;BME280_temperature;BME280_humidity;BME280_pressure;Samples;Min_cycle;Max_cycle;Signal;HPM_P1;HPM_P2
2023/06/21 05:34:07;;;;;;;;;16.75;11.25;;;;;-142.59;100.00;56100.38;4872649;22;52094;-81
2023/06/21 05:36:33;;;;;;;;;7.25;7.25;;;;;-142.59;100.00;56100.38;6181384;22;49960;-74
2023/06/21 05:38:58;;;;;;;;;9.50;9.50;;;;;-142.59;100.00;56100.38;6257851;22;49579;-71
2023/06/21 05:41:23;;;;;;;;;29.25;29.25;;;;;-142.59;100.00;56100.38;6257020;22;55576;-76
2023/06/21 05:43:49;;;;;;;;;5.75;1.75;;;;;-142.59;100.00;56100.38;6257090;22;58038;-75
2023/06/21 05:46:14;;;;;;;;;4.50;4.50;;;;;-142.59;100.00;56100.38;6257691;22;49980;-76
2023/06/21 05:48:39;;;;;;;;;3.50;2.50;;;;;-142.59;100.00;56100.38;6257779;22;64676;-76
2023/06/21 05:51:04;;;;;;;;;13.75;10.50;;;;;-142.59;100.00;56100.38;6257755;22;49808;-75
2023/06/21 05:53:31;;;;;;;;;14.00;14.00;;;;;-142.59;100.00;56100.38;6256801;22;67747;-75
2023/06/21 05:55:56;;;;;;;;;36.25;35.50;;;;;-142.59;100.00;56100.38;6258058;22;49833;-76
2023/06/21 05:58:22;;;;;;;;;8.00;7.75;;;;;-142.59;100.00;56100.38;6258923;22;50088;-71
2023/06/21 06:00:48;;;;;;;;;2.75;1.25;;;;;-142.59;100.00;56100.38;6258776;22;49653;-72
2023/06/21 06:03:13;;;;;;;;;6.25;3.75;;;;;-142.59;100.00;56100.38;6257248;22;49756;-72
2023/06/21 06:05:38;;;;;;;;;0.00;0.00;;;;;-142.59;100.00;56100.38;6257239;22;49729;-72
2023/06/21 06:08:04;;;;;;;;;1.75;1.75;;;;;-142.59;100.00;56100.38;6255875;22;49618;-71
2023/06/21 06:10:29;;;;;;;;;19.00;17.50;;;;;-142.59;100.00;56100.38;6259230;22;49959;-72
2023/06/21 06:12:54;;;;;;;;;8.00;7.00;;;;;-142.59;100.00;56100.38;6258099;22;50297;-72
2023/06/21 06:15:21;;;;;;;;;6.50;6.50;;;;;-142.59;100.00;56100.38;6263159;22;50021;-73
2023/06/21 06:17:46;;;;;;;;;8.00;5.00;;;;;-142.59;100.00;56100.38;6264085;22;54051;-72
2023/06/21 06:20:12;;;;;;;;;7.50;7.00;;;;;-142.59;100.00;56100.38;6263229;22;50090;-72
2023/06/21 06:22:39;;;;;;;;;4.00;4.00;;;;;-142.59;100.00;56100.38;6263448;22;50130;-72
2023/06/21 06:25:05;;;;;;;;;6.00;6.00;;;;;-142.59;100.00;56100.38;6264673;22;50039;-72
2023/06/21 06:27:30;;;;;;;;;2.00;1.00;;;;;-142.59;100.00;56100.38;6264129;22;49570;-72
2023/06/21 06:29:56;;;;;;;;;6.00;5.00;;;;;-142.59;100.00;56100.38;6264440;22;49981;-72
2023/06/21 06:32:22;;;;;;;;;6.00;4.50;;;;;-142.59;100.00;56100.38;6263825;22;50696;-71
2023/06/21 06:34:47;;;;;;;;;5.00;5.00;;;;;-142.59;100.00;56100.38;6263935;22;49873;-71
2023/06/21 06:37:13;;;;;;;;;0.75;0.00;;;;;-142.59;100.00;56100.38;6264476;22;49722;-69
2023/06/21 06:39:38;;;;;;;;;5.00;4.00;;;;;-142.59;100.00;56100.38;6264435;22;49956;-69
2023/06/21 06:42:04;;;;;;;;;5.00;1.75;;;;;-142.59;100.00;56100.38;6264315;22;50456;-71
2023/06/21 06:44:29;;;;;;;;;1.50;1.50;;;;;-142.59;100.00;56100.38;6264256;22;49745;-71
2023/06/21 06:46:55;;;;;;;;;4.25;3.50;;;;;-142.59;100.00;56100.38;6236930;22;61478;-69
2023/06/21 06:49:20;;;;;;;;;4.75;2.50;;;;;-142.59;100.00;56100.38;6265778;22;49842;-71
2023/06/21 06:51:45;;;;;;;;;5.00;5.00;;;;;-142.59;100.00;56100.38;6265297;22;61192;-71
2023/06/21 06:54:11;;;;;;;;;1.75;1.75;;;;;-142.59;100.00;56100.38;6262576;22;57992;-72
2023/06/21 06:56:36;;;;;;;;;1.75;1.75;;;;;-142.59;100.00;56100.38;6266038;22;49766;-71
2023/06/21 06:59:02;;;;;;;;;7.25;7.25;;;;;-142.59;100.00;56100.38;6264788;22;49987;-71
2023/06/21 07:01:27;;;;;;;;;6.25;2.25;;;;;-142.59;100.00;56100.38;6264704;22;50058;-72
2023/06/21 07:03:53;;;;;;;;;2.00;2.00;;;;;-142.59;100.00;56100.38;6264597;22;49644;-70
2023/06/21 07:06:18;;;;;;;;;1.50;0.00;;;;;-142.59;100.00;56100.38;6265177;22;49637;-71
2023/06/21 07:08:44;;;;;;;;;1.00;1.00;;;;;-142.59;100.00;56100.38;6266305;22;49882;-71
2023/06/21 07:11:10;;;;;;;;;2.00;2.00;;;;;-142.59;100.00;56100.38;6264930;22;49851;-71
2023/06/21 07:13:36;;;;;;;;;0.50;0.00;;;;;-142.59;100.00;56100.38;6265856;22;49961;-71
2023/06/21 07:16:01;;;;;;;;;0.50;0.00;;;;;-142.59;100.00;56100.38;6265491;22;52017;-71
2023/06/21 07:18:26;;;;;;;;;3.00;1.00;;;;;-142.59;100.00;56100.38;6265404;22;50003;-71
2023/06/21 07:20:52;;;;;;;;;2.75;2.50;;;;;-142.59;100.00;56100.38;6264153;22;49668;-71
2023/06/21 07:23:18;;;;;;;;;7.50;6.00;;;;;-142.59;100.00;56100.38;6265694;22;49658;-70
2023/06/21 07:25:43;;;;;;;;;1.00;1.00;;;;;-142.59;100.00;56100.38;6265510;22;49972;-70
2023/06/21 07:28:09;;;;;;;;;3.25;1.75;;;;;-142.59;100.00;56100.38;6237910;22;55199;-70
2023/06/21 07:30:34;;;;;;;;;4.00;1.75;;;;;-142.59;100.00;56100.38;6264724;22;51523;-70
2023/06/21 07:32:59;;;;;;;;;4.50;2.75;;;;;-142.59;100.00;56100.38;6266106;22;49686;-70
2023/06/21 07:35:25;;;;;;;;;7.50;5.25;;;;;-142.59;100.00;56100.38;6265387;22;49820;-70
2023/06/21 07:37:50;;;;;;;;;1.00;1.00;;;;;-142.59;100.00;56100.38;6265884;22;49954;-70
2023/06/21 07:40:15;;;;;;;;;4.00;3.00;;;;;-142.59;100.00;56100.38;6264475;22;67696;-70
2023/06/21 07:42:41;;;;;;;;;18.00;18.00;;;;;-142.59;100.00;56100.38;6263925;22;54689;-71
2023/06/21 07:45:07;;;;;;;;;1.00;1.00;;;;;-142.59;100.00;56100.38;6265064;22;49902;-70
2023/06/21 07:47:32;;;;;;;;;1.75;0.25;;;;;-142.59;100.00;56100.38;6265403;22;49737;-71
2023/06/21 07:49:59;;;;;;;;;3.50;1.50;;;;;-142.59;100.00;56100.38;6265281;22;49716;-70
2023/06/21 07:52:24;;;;;;;;;1.00;1.00;;;;;-142.59;100.00;56100.38;6264103;22;49803;-70
2023/06/21 07:54:49;;;;;;;;;1.00;0.00;;;;;-142.59;100.00;56100.38;6265330;22;49764;-70
2023/06/21 07:57:16;;;;;;;;;0.25;0.00;;;;;-142.59;100.00;56100.38;6264025;22;50119;-70
2023/06/21 07:59:42;;;;;;;;;1.00;1.00;;;;;-142.59;100.00;56100.38;6264799;22;51523;-70
2023/06/21 08:02:09;;;;;;;;;0.00;0.00;;;;;-142.59;100.00;56100.38;6265724;22;49998;-70
2023/06/21 08:04:34;;;;;;;;;11.25;8.75;;;;;-142.59;100.00;56100.38;6265383;22;49590;-71
2023/06/21 08:07:00;;;;;;;;;2.00;2.00;;;;;-142.59;100.00;56100.38;6263953;22;49735;-70
2023/06/21 08:09:25;;;;;;;;;2.00;2.00;;;;;-142.59;100.00;56100.38;6265375;22;50228;-70
2023/06/21 08:11:50;;;;;;;;;1.75;1.00;;;;;-142.59;100.00;56100.38;6264091;22;64155;-69
2023/06/21 08:14:15;;;;;;;;;0.50;0.50;;;;;-142.59;100.00;56100.38;6263301;22;51587;-69
2023/06/21 08:16:41;;;;;;;;;1.00;1.00;;;;;-142.59;100.00;56100.38;6264393;22;50277;-69
2023/06/21 08:19:07;;;;;;;;;4.75;4.75;;;;;-142.59;100.00;56100.38;6264840;22;54781;-70
2023/06/21 08:21:32;;;;;;;;;2.00;1.00;;;;;-142.59;100.00;56100.38;6264243;22;50293;-70
2023/06/21 08:23:57;;;;;;;;;1.00;1.00;;;;;-142.59;100.00;56100.38;6265051;22;49657;-70
2023/06/21 08:26:22;;;;;;;;;10.00;8.50;;;;;-142.59;100.00;56100.38;6265458;22;49537;-70
2023/06/21 08:28:48;;;;;;;;;0.50;0.50;;;;;-142.59;100.00;56100.38;6263906;22;53388;-70
2023/06/21 08:31:14;;;;;;;;;0.00;0.00;;;;;-142.59;100.00;56100.38;6264039;22;61910;-70
2023/06/21 08:33:39;;;;;;;;;4.75;4.75;;;;;-142.59;100.00;56100.38;6262491;22;49962;-70
2023/06/21 08:36:06;;;;;;;;;1.25;1.25;;;;;-142.59;100.00;56100.38;6264552;22;49570;-70
2023/06/21 08:38:33;;;;;;;;;15.00;12.75;;;;;-142.59;100.00;56100.38;6263861;22;50136;-70
2023/06/21 08:41:02;;;;;;;;;0.00;0.00;;;;;-142.59;100.00;56100.38;6265362;22;49794;-70
2023/06/21 08:43:28;;;;;;;;;2.00;2.00;;;;;-142.59;100.00;56100.38;6264411;22;49646;-70
2023/06/21 08:45:54;;;;;;;;;8.25;6.25;;;;;-142.59;100.00;56100.38;6264749;22;49648;-70
2023/06/21 08:48:22;;;;;;;;;1.00;1.00;;;;;-142.59;100.00;56100.38;6265146;22;50532;-70
2023/06/21 08:50:49;;;;;;;;;1.00;0.00;;;;;-142.59;100.00;56100.38;6264348;22;49590;-69
2023/06/21 08:53:25;;;;;;;;;5.75;5.25;;;;;-142.59;100.00;56100.38;6264578;22;49923;-70
2023/06/21 08:55:51;;;;;;;;;0.00;0.00;;;;;-142.59;100.00;56100.38;6266075;22;49924;-70
2023/06/21 08:58:21;;;;;;;;;6.00;3.50;;;;;-142.59;100.00;56100.38;6265052;22;50268;-70
2023/06/21 09:00:51;;;;;;;;;0.75;0.75;;;;;-142.59;100.00;56100.38;6265029;22;50021;-70
2023/06/21 09:03:25;;;;;;;;;13.25;13.25;;;;;-142.59;100.00;56100.38;6264856;22;49931;-70
2023/06/21 09:06:06;;;;;;;;;0.00;0.00;;;;;-142.59;100.00;56100.38;6265869;22;49634;-70
2023/06/21 09:08:32;;;;;;;;;0.50;0.50;;;;;-142.59;100.00;56100.38;6264088;22;50507;-70
2023/06/21 09:10:59;;;;;;;;;5.00;0.25;;;;;-142.59;100.00;56100.38;6264306;22;49780;-70
2023/06/21 09:13:28;;;;;;;;;3.75;3.75;;;;;-142.59;100.00;56100.38;6264320;22;49703;-70
2023/06/21 09:15:56;;;;;;;;;4.75;2.25;;;;;-142.59;100.00;56100.38;6265074;22;49904;-70
2023/06/21 09:18:22;;;;;;;;;4.75;1.25;;;;;-142.59;100.00;56100.38;6263416;22;49809;-70
2023/06/21 09:20:49;;;;;;;;;4.50;4.25;;;;;-142.59;100.00;56100.38;6265095;22;50042;-70
2023/06/21 09:23:15;;;;;;;;;1.50;0.25;;;;;-142.59;100.00;56100.38;6264712;22;49932;-70
2023/06/21 09:25:42;;;;;;;;;0.00;0.00;;;;;-142.59;100.00;56100.38;6265190;22;49595;-70
2023/06/21 09:28:07;;;;;;;;;4.50;2.00;;;;;-142.59;100.00;56100.38;6237548;22;50715;-70
2023/06/21 09:30:33;;;;;;;;;1.00;1.00;;;;;-142.59;100.00;56100.38;6265205;22;49829;-71
2023/06/21 09:32:58;;;;;;;;;4.25;1.50;;;;;-142.59;100.00;56100.38;6262531;22;50038;-70
2023/06/21 09:35:24;;;;;;;;;1.25;1.25;;;;;-142.59;100.00;56100.38;6264546;22;49562;-70
2023/06/21 09:37:50;;;;;;;;;3.50;2.50;;;;;-142.59;100.00;56100.38;6263548;22;49841;-70
2023/06/21 09:40:15;;;;;;;;;0.25;0.25;;;;;-142.59;100.00;56100.38;6263031;22;49630;-70
2023/06/21 09:42:41;;;;;;;;;21.00;21.00;;;;;-142.59;100.00;56100.38;6265005;22;50111;-70
2023/06/21 09:45:11;;;;;;;;;65.00;57.00;;;;;-142.59;100.00;56100.38;6265285;22;49927;-70
2023/06/21 09:47:38;;;;;;;;;83.33;68.33;;;;;-142.59;100.00;56100.38;6263656;22;49960;-71
2023/06/21 09:50:05;;;;;;;;;69.25;59.00;;;;;-142.59;100.00;56100.38;6263717;22;49617;-71
2023/06/21 09:52:31;;;;;;;;;18.50;17.25;;;;;-142.59;100.00;56100.38;6264771;22;49598;-70
2023/06/21 09:54:57;;;;;;;;;3.50;2.00;;;;;-142.59;100.00;56100.38;6237005;22;49588;-70
2023/06/21 09:57:30;;;;;;;;;64.25;56.00;;;;;-142.59;100.00;56100.38;6264138;22;49799;-70
2023/06/21 09:59:56;;;;;;;;;37.50;35.00;;;;;-142.59;100.00;56100.38;6264518;22;49704;-70
2023/06/21 10:02:21;;;;;;;;;2.00;1.00;;;;;-142.59;100.00;56100.38;6264593;22;49711;-71
2023/06/21 10:04:47;;;;;;;;;4.00;3.50;;;;;-142.59;100.00;56100.38;6264619;22;49591;-70
2023/06/21 10:07:14;;;;;;;;;3.50;3.50;;;;;-142.59;100.00;56100.38;6263322;22;49874;-70
2023/06/21 10:09:40;;;;;;;;;5.25;3.75;;;;;-142.59;100.00;56100.38;6236925;22;49789;-69
2023/06/21 10:12:09;;;;;;;;;5.00;5.00;;;;;-142.59;100.00;56100.38;6264806;22;49699;-70
2023/06/21 10:14:34;;;;;;;;;0.00;0.00;;;;;-142.59;100.00;56100.38;6264456;22;49864;-70
2023/06/21 10:17:00;;;;;;;;;53.50;49.00;;;;;-142.59;100.00;56100.38;6263864;22;50357;-71
2023/06/21 10:19:29;;;;;;;;;100.33;87.33;;;;;-142.59;100.00;56100.38;6264939;22;49800;-71
2023/06/21 10:22:08;;;;;;;;;71.75;61.00;;;;;-142.59;100.00;56100.38;6265631;22;49821;-70
2023/06/21 10:24:50;;;;;;;;;0.25;0.00;;;;;-142.59;100.00;56100.38;6265842;22;49872;-71
2023/06/21 10:27:18;;;;;;;;;2.00;0.00;;;;;-142.59;100.00;56100.38;6266210;22;49954;-70
2023/06/21 10:29:46;;;;;;;;;0.50;0.50;;;;;-142.59;100.00;56100.38;6265139;22;49519;-71
2023/06/21 10:32:12;;;;;;;;;74.25;62.75;;;;;-142.59;100.00;56100.38;6238916;22;50039;-71
2023/06/21 10:34:40;;;;;;;;;11.75;10.00;;;;;-142.59;100.00;56100.38;6258510;22;49610;-71
2023/06/21 10:37:21;;;;;;;;;9.25;9.25;;;;;-142.59;100.00;56100.38;6234259;22;50145;-70
2023/06/21 10:39:52;;;;;;;;;56.25;50.25;;;;;-142.59;100.00;56100.38;6234625;22;49701;-71
2023/06/21 10:42:19;;;;;;;;;27.75;26.00;;;;;-142.59;100.00;56100.38;6234509;22;49988;-73
2023/06/21 10:44:44;;;;;;;;;1.25;1.25;;;;;-142.59;100.00;56100.38;6235443;22;49587;-70
2023/06/21 10:47:13;;;;;;;;;3.25;3.25;;;;;-142.59;100.00;56100.38;6235136;22;49924;-79
2023/06/21 10:49:40;;;;;;;;;1.00;0.00;;;;;-142.59;100.00;56100.38;6235696;22;50067;-72
2023/06/21 10:52:06;;;;;;;;;1.00;0.25;;;;;-142.59;100.00;56100.38;6234519;22;49758;-70
2023/06/21 10:54:32;;;;;;;;;0.25;0.25;;;;;-142.59;100.00;56100.38;6235022;22;50010;-70
2023/06/21 10:56:58;;;;;;;;;91.75;75.75;;;;;-142.59;100.00;56100.38;6234538;22;51567;-69
2023/06/21 10:59:26;;;;;;;;;89.25;73.50;;;;;-142.59;100.00;56100.38;6234320;22;50070;-70
2023/06/21 11:01:52;;;;;;;;;52.50;44.00;;;;;-142.59;100.00;56100.38;6258308;22;49822;-70
2023/06/21 11:04:17;;;;;;;;;61.75;54.50;;;;;-142.59;100.00;56100.38;6234889;22;49940;-74
2023/06/21 11:06:43;;;;;;;;;81.00;67.75;;;;;-142.59;100.00;56100.38;6235132;22;50485;-73
2023/06/21 11:09:11;;;;;;;;;0.50;0.50;;;;;-142.59;100.00;56100.38;6234708;22;49722;-70
2023/06/21 11:11:47;;;;;;;;;1.00;1.00;;;;;-142.59;100.00;56100.38;6235166;22;50082;-75
2023/06/21 11:14:13;;;;;;;;;4.75;4.00;;;;;-142.59;100.00;56100.38;6235211;22;49761;-74
2023/06/21 11:16:39;;;;;;;;;0.50;0.25;;;;;-142.59;100.00;56100.38;6234942;22;50543;-72
2023/06/21 11:19:08;;;;;;;;;2.00;0.75;;;;;-142.59;100.00;56100.38;6234913;22;49735;-73
2023/06/21 11:21:34;;;;;;;;;4.75;4.75;;;;;-142.59;100.00;56100.38;6234121;22;49774;-73
2023/06/21 11:24:05;;;;;;;;;5.00;4.00;;;;;-142.59;100.00;56100.38;6234938;22;49571;-73
2023/06/21 11:26:54;;;;;;;;;4.75;3.50;;;;;-142.59;100.00;56100.38;6233679;22;50047;-72
2023/06/21 11:29:20;;;;;;;;;3.50;3.50;;;;;-142.59;100.00;56100.38;6234590;22;49758;-73
2023/06/21 11:31:45;;;;;;;;;2.00;1.50;;;;;-142.59;100.00;56100.38;6234691;22;49815;-72
2023/06/21 11:34:24;;;;;;;;;3.00;0.00;;;;;-142.59;100.00;56100.38;6247365;22;50134;-72
2023/06/21 11:36:50;;;;;;;;;4.25;3.00;;;;;-142.59;100.00;56100.38;6264499;22;51138;-73
2023/06/21 11:39:15;;;;;;;;;5.50;3.50;;;;;-142.59;100.00;56100.38;6264176;22;50062;-72
2023/06/21 11:41:43;;;;;;;;;1.00;1.00;;;;;-142.59;100.00;56100.38;6265367;22;49653;-72
2023/06/21 11:44:29;;;;;;;;;2.50;1.50;;;;;-142.59;100.00;56100.38;6266295;22;49979;-72
2023/06/21 11:47:18;;;;;;;;;2.00;2.00;;;;;-142.59;100.00;56100.38;6262567;22;51226;-72
2023/06/21 11:50:16;;;;;;;;;1.00;1.00;;;;;-142.59;100.00;56100.38;6265903;22;49754;-73
2023/06/21 11:52:43;;;;;;;;;1.25;1.00;;;;;-142.59;100.00;56100.38;6263696;22;49673;-72
2023/06/21 11:55:13;;;;;;;;;4.75;2.00;;;;;-142.59;100.00;56100.38;6238865;22;50008;-73
2023/06/21 11:57:45;;;;;;;;;1.00;0.75;;;;;-142.59;100.00;56100.38;6265124;22;49931;-72
2023/06/21 12:00:11;;;;;;;;;1.50;1.00;;;;;-142.59;100.00;56100.38;6265511;22;50054;-73
2023/06/21 12:02:37;;;;;;;;;1.00;1.00;;;;;-142.59;100.00;56100.38;6264309;22;49778;-72
2023/06/21 12:05:02;;;;;;;;;4.50;2.50;;;;;-142.59;100.00;56100.38;6265203;22;51612;-72
2023/06/21 12:07:27;;;;;;;;;3.00;3.00;;;;;-142.59;100.00;56100.38;6265270;22;50194;-73
2023/06/21 12:09:53;;;;;;;;;0.00;0.00;;;;;-142.59;100.00;56100.38;6265651;22;49815;-72
2023/06/21 12:12:18;;;;;;;;;0.00;0.00;;;;;-142.59;100.00;56100.38;6264270;22;49715;-72
2023/06/21 12:14:44;;;;;;;;;3.00;3.00;;;;;-142.59;100.00;56100.38;6266060;22;50001;-72
2023/06/21 12:17:17;;;;;;;;;5.50;1.75;;;;;-142.59;100.00;56100.38;6263857;22;50666;-70
2023/06/21 12:19:43;;;;;;;;;1.50;0.25;;;;;-142.59;100.00;56100.38;6265714;22;49622;-72
2023/06/21 12:22:12;;;;;;;;;2.50;1.25;;;;;-142.59;100.00;56100.38;6264445;22;49857;-72
2023/06/21 12:24:37;;;;;;;;;1.00;1.00;;;;;-142.59;100.00;56100.38;6265002;22;50030;-73
2023/06/21 12:27:03;;;;;;;;;42.50;41.00;;;;;-142.59;100.00;56100.38;6262713;22;53125;-73
2023/06/21 12:29:29;;;;;;;;;3.00;3.00;;;;;-142.59;100.00;56100.38;6265065;22;50254;-73
2023/06/21 12:31:56;;;;;;;;;5.00;3.00;;;;;-142.59;100.00;56100.38;6265187;22;49737;-73
2023/06/21 12:34:23;;;;;;;;;7.75;5.25;;;;;-142.59;100.00;56100.38;6264590;22;49951;-71
2023/06/21 12:36:48;;;;;;;;;1.25;1.25;;;;;-142.59;100.00;56100.38;6234271;22;51723;-71
2023/06/21 12:39:15;;;;;;;;;0.00;0.00;;;;;-142.59;100.00;56100.38;6264818;22;49668;-71
2023/06/21 12:41:42;;;;;;;;;24.75;22.25;;;;;-142.59;100.00;56100.38;6264266;22;49891;-72
2023/06/21 12:44:21;;;;;;;;;1.75;0.00;;;;;-142.59;100.00;56100.38;6265008;22;49855;-73
2023/06/21 12:46:47;;;;;;;;;6.50;6.50;;;;;-142.59;100.00;56100.38;6264150;22;50655;-72
2023/06/21 12:49:15;;;;;;;;;1.00;1.00;;;;;-142.59;100.00;56100.38;6264582;22;49775;-72
2023/06/21 12:51:42;;;;;;;;;2.00;2.00;;;;;-142.59;100.00;56100.38;6265150;22;49639;-73
2023/06/21 12:54:20;;;;;;;;;6.50;5.75;;;;;-142.59;100.00;56100.38;6264628;22;49623;-73
2023/06/21 12:56:52;;;;;;;;;1.00;1.00;;;;;-142.59;100.00;56100.38;6265174;22;49939;-72
2023/06/21 12:59:18;;;;;;;;;2.50;2.50;;;;;-142.59;100.00;56100.38;6264848;22;49799;-72
2023/06/21 13:01:43;;;;;;;;;6.00;2.00;;;;;-142.59;100.00;56100.38;6263721;22;49873;-73
2023/06/21 13:04:11;;;;;;;;;1.00;1.00;;;;;-142.59;100.00;56100.38;6266863;22;49754;-72
2023/06/21 13:06:38;;;;;;;;;15.00;15.00;;;;;-142.59;100.00;56100.38;6264019;22;50558;-71
2023/06/21 13:09:04;;;;;;;;;2.00;2.00;;;;;-142.59;100.00;56100.38;6265224;22;49770;-71
2023/06/21 13:11:30;;;;;;;;;92.50;78.50;;;;;-142.59;100.00;56100.38;6265250;22;49634;-72
2023/06/21 13:13:57;;;;;;;;;54.25;45.75;;;;;-142.59;100.00;56100.38;6264911;22;49559;-70
2023/06/21 13:16:23;;;;;;;;;30.50;28.25;;;;;-142.59;100.00;56100.38;6263713;22;49699;-71
2023/06/21 13:18:48;;;;;;;;;78.50;66.50;;;;;-142.59;100.00;56100.38;6264260;22;49670;-75
2023/06/21 13:21:16;;;;;;;;;23.00;20.50;;;;;-142.59;100.00;56100.38;6264265;22;49702;-72
2023/06/21 13:23:42;;;;;;;;;31.75;30.25;;;;;-142.59;100.00;56100.38;6259663;22;50129;-72
2023/06/21 13:26:08;;;;;;;;;3.50;3.50;;;;;-142.59;100.00;56100.38;6264521;22;50750;-72
2023/06/21 13:28:33;;;;;;;;;4.00;1.50;;;;;-142.59;100.00;56100.38;6263971;22;50021;-71
2023/06/21 13:30:58;;;;;;;;;0.00;0.00;;;;;-142.59;100.00;56100.38;6264620;22;51501;-71
2023/06/21 13:33:24;;;;;;;;;7.00;4.25;;;;;-142.59;100.00;56100.38;6263747;22;49869;-71
2023/06/21 13:35:50;;;;;;;;;22.75;22.75;;;;;-142.59;100.00;56100.38;6262672;22;49683;-70
2023/06/21 13:38:15;;;;;;;;;1.25;1.25;;;;;-142.59;100.00;56100.38;6265487;22;49650;-71
2023/06/21 13:40:42;;;;;;;;;4.00;4.00;;;;;-142.59;100.00;56100.38;6264883;22;49595;-71
2023/06/21 13:43:08;;;;;;;;;7.50;7.50;;;;;-142.59;100.00;56100.38;6264837;22;49692;-72
2023/06/21 13:45:33;;;;;;;;;5.00;3.00;;;;;-142.59;100.00;56100.38;6262658;22;50883;-71
2023/06/21 13:47:58;;;;;;;;;4.00;1.50;;;;;-142.59;100.00;56100.38;6262617;22;49778;-71
2023/06/21 13:50:24;;;;;;;;;7.50;7.50;;;;;-142.59;100.00;56100.38;6263896;22;50064;-71
2023/06/21 13:52:49;;;;;;;;;4.50;1.75;;;;;-142.59;100.00;56100.38;6262571;22;49532;-72
2023/06/21 13:55:15;;;;;;;;;1.00;1.00;;;;;-142.59;100.00;56100.38;6264874;22;49918;-71
2023/06/21 13:57:40;;;;;;;;;5.00;5.00;;;;;-142.59;100.00;56100.38;6264751;22;49776;-71
2023/06/21 14:00:13;;;;;;;;;3.00;2.00;;;;;-142.59;100.00;56100.38;6262968;22;49742;-72
2023/06/21 14:02:38;;;;;;;;;2.00;0.00;;;;;-142.59;100.00;56100.38;6263894;22;49687;-72
2023/06/21 14:05:03;;;;;;;;;4.25;4.25;;;;;-142.59;100.00;56100.38;6263490;22;50269;-72
2023/06/21 14:07:29;;;;;;;;;2.00;2.00;;;;;-142.59;100.00;56100.38;6263980;22;49752;-72
2023/06/21 14:09:54;;;;;;;;;4.00;4.00;;;;;-142.59;100.00;56100.38;6264988;22;49780;-72
2023/06/21 14:12:19;;;;;;;;;1.00;1.00;;;;;-142.59;100.00;56100.38;6262578;22;49644;-71
2023/06/21 14:14:45;;;;;;;;;5.00;5.00;;;;;-142.59;100.00;56100.38;6262538;22;50863;-71
2023/06/21 14:17:11;;;;;;;;;4.00;1.25;;;;;-142.59;100.00;56100.38;6264095;22;50105;-72
2023/06/21 14:19:38;;;;;;;;;6.00;6.00;;;;;-142.59;100.00;56100.38;6264424;22;50001;-72
2023/06/21 14:22:04;;;;;;;;;2.00;0.25;;;;;-142.59;100.00;56100.38;6261110;22;50152;-72
2023/06/21 14:24:32;;;;;;;;;12.50;12.50;;;;;-142.59;100.00;56100.38;6260636;22;50166;-71
2023/06/21 14:26:57;;;;;;;;;7.50;4.25;;;;;-142.59;100.00;56100.38;6263647;22;49625;-72
2023/06/21 14:29:22;;;;;;;;;1.50;0.00;;;;;-142.59;100.00;56100.38;6262995;22;54511;-73
2023/06/21 14:31:48;;;;;;;;;0.00;0.00;;;;;-142.59;100.00;56100.38;6263704;22;49592;-71
2023/06/21 14:34:13;;;;;;;;;5.25;5.00;;;;;-142.59;100.00;56100.38;6262214;22;61013;-71
2023/06/21 14:36:40;;;;;;;;;5.00;5.00;;;;;-142.59;100.00;56100.38;6263415;22;69384;-71
2023/06/21 14:39:06;;;;;;;;;4.00;2.00;;;;;-142.59;100.00;56100.38;6264277;22;49985;-69
2023/06/21 14:41:32;;;;;;;;;2.00;1.00;;;;;-142.59;100.00;56100.38;6265004;22;50103;-71
2023/06/21 14:43:57;;;;;;;;;3.75;1.00;;;;;-142.59;100.00;56100.38;6263162;22;68817;-71
2023/06/21 14:46:22;;;;;;;;;4.25;4.25;;;;;-142.59;100.00;56100.38;6236009;22;61762;-71
2023/06/21 14:48:49;;;;;;;;;4.75;3.75;;;;;-142.59;100.00;56100.38;6236460;22;63244;-72
2023/06/21 14:51:14;;;;;;;;;4.00;4.00;;;;;-142.59;100.00;56100.38;6263765;22;49840;-72
2023/06/21 14:53:40;;;;;;;;;3.50;1.75;;;;;-142.59;100.00;56100.38;6263852;22;55438;-72
2023/06/21 14:56:06;;;;;;;;;5.00;4.00;;;;;-142.59;100.00;56100.38;6263894;22;49588;-79
2023/06/21 14:58:33;;;;;;;;;5.00;5.00;;;;;-142.59;100.00;56100.38;6264429;22;49702;-72
2023/06/21 15:00:58;;;;;;;;;46.50;43.00;;;;;-142.59;100.00;56100.38;6264291;22;49894;-72
2023/06/21 15:03:24;;;;;;;;;37.00;36.25;;;;;-142.59;100.00;56100.38;6264213;22;50359;-72
2023/06/21 15:05:50;;;;;;;;;1.00;1.00;;;;;-142.59;100.00;56100.38;6263921;22;51686;-72
2023/06/21 15:08:16;;;;;;;;;4.00;2.00;;;;;-142.59;100.00;56100.38;6265624;22;49684;-72
2023/06/21 15:10:42;;;;;;;;;7.50;5.00;;;;;-142.59;100.00;56100.38;6265931;22;50040;-71
2023/06/21 15:13:07;;;;;;;;;6.00;6.00;;;;;-142.59;100.00;56100.38;6263244;22;51325;-72
2023/06/21 15:15:32;;;;;;;;;1.50;0.50;;;;;-142.59;100.00;56100.38;6263515;22;58807;-72
2023/06/21 15:17:58;;;;;;;;;6.25;6.00;;;;;-142.59;100.00;56100.38;6265225;22;57287;-73
2023/06/21 15:20:23;;;;;;;;;1.25;0.25;;;;;-142.59;100.00;56100.38;6265685;22;55341;-73
2023/06/21 15:22:49;;;;;;;;;2.50;2.50;;;;;-142.59;100.00;56100.38;6264919;22;56166;-73
2023/06/21 15:25:14;;;;;;;;;6.25;6.25;;;;;-142.59;100.00;56100.38;6265556;22;49902;-75
2023/06/21 15:27:40;;;;;;;;;92.50;76.25;;;;;-142.59;100.00;56100.38;6263377;22;49635;-75
2023/06/21 15:30:05;;;;;;;;;30.75;30.50;;;;;-142.59;100.00;56100.38;6265784;22;49871;-73
2023/06/21 15:32:31;;;;;;;;;7.75;7.75;;;;;-142.59;100.00;56100.38;6265574;22;49987;-74
2023/06/21 15:34:56;;;;;;;;;18.75;16.75;;;;;-142.59;100.00;56100.38;6263260;22;63340;-74
2023/06/21 15:37:21;;;;;;;;;59.75;52.50;;;;;-142.59;100.00;56100.38;6264610;22;63616;-74
2023/06/21 15:39:47;;;;;;;;;103.67;94.00;;;;;-142.59;100.00;56100.38;6264501;22;57377;-75
2023/06/21 15:42:12;;;;;;;;;2.00;2.00;;;;;-142.59;100.00;56100.38;6237141;22;50546;-73
2023/06/21 15:44:37;;;;;;;;;5.50;5.50;;;;;-142.59;100.00;56100.38;6265323;22;49579;-73
2023/06/21 15:47:03;;;;;;;;;8.00;7.25;;;;;-142.59;100.00;56100.38;6265356;22;49983;-73
2023/06/21 15:49:30;;;;;;;;;56.25;48.50;;;;;-142.59;100.00;56100.38;6266075;22;50430;-72
2023/06/21 15:51:56;;;;;;;;;78.25;66.25;;;;;-142.59;100.00;56100.38;6264803;22;51548;-73
2023/06/21 15:54:21;;;;;;;;;109.67;103.00;;;;;-142.59;100.00;56100.38;6264629;22;67927;-73
2023/06/21 15:56:46;;;;;;;;;111.33;105.33;;;;;-142.59;100.00;56100.38;6264867;22;49829;-73
2023/06/21 15:59:11;;;;;;;;;75.33;64.00;;;;;-142.59;100.00;56100.38;6264044;22;49905;-73
2023/06/21 16:01:37;;;;;;;;;89.67;75.00;;;;;-142.59;100.00;56100.38;6265309;22;50362;-73
2023/06/21 16:04:03;;;;;;;;;108.00;102.67;;;;;-142.59;100.00;56100.38;6265364;22;49673;-74
2023/06/21 16:06:28;;;;;;;;;103.67;94.33;;;;;-142.59;100.00;56100.38;6265205;22;49726;-74
2023/06/21 16:08:54;;;;;;;;;78.75;66.75;;;;;-142.59;100.00;56100.38;6265896;22;50140;-74
2023/06/21 16:11:19;;;;;;;;;104.67;95.00;;;;;-142.59;100.00;56100.38;6263933;22;49856;-73
2023/06/21 16:13:45;;;;;;;;;94.33;76.67;;;;;-142.59;100.00;56100.38;6264444;22;50097;-74
2023/06/21 16:16:11;;;;;;;;;15.00;9.75;;;;;-142.59;100.00;56100.38;6237667;22;49667;-74
2023/06/21 16:18:37;;;;;;;;;63.00;55.00;;;;;-142.59;100.00;56100.38;6265485;22;49619;-73
2023/06/21 16:21:03;;;;;;;;;30.25;29.00;;;;;-142.59;100.00;56100.38;6265160;22;51190;-73
2023/06/21 16:23:28;;;;;;;;;92.67;77.00;;;;;-142.59;100.00;56100.38;6263724;22;49741;-73
2023/06/21 16:25:54;;;;;;;;;42.75;40.25;;;;;-142.59;100.00;56100.38;6265246;22;49520;-73
2023/06/21 16:28:20;;;;;;;;;33.50;30.00;;;;;-142.59;100.00;56100.38;6264766;22;49641;-74
2023/06/21 16:30:46;;;;;;;;;33.00;32.00;;;;;-142.59;100.00;56100.38;6264349;22;51423;-73
2023/06/21 16:33:12;;;;;;;;;78.50;65.25;;;;;-142.59;100.00;56100.38;6264732;22;50135;-73
2023/06/21 16:35:38;;;;;;;;;10.50;10.50;;;;;-142.59;100.00;56100.38;6265404;22;49958;-73